7NK7 weather

Morin Airport
Sherburne, New York, United States

Public forecast

Using degrees Fahrenheit for public forecast. Weather courtesy of forecast.io.

Closest aviation weather report (METAR) to Morin Airport

Closest report is Cortland County Chase Field, 16.1 nm (29.8 km) WSW. Retrieved 2019/10/23 12:35 UTC (0 seconds ago):

KN03 231235Z AUTO 00000KT 10SM CLR 03/03 A2991 RMK AO2

Closest aviation forecast (TAF) to Morin Airport

Closest forecast is Syracuse Hancock International Airport, 25.7 nm (47.6 km) NNW. Retrieved 2019/10/23 12:42 UTC (0 seconds ago):

TAF KSYR 231139Z 2312/2412 23007KT P6SM SCT080 FM231600 25011G18KT P6SM BKN060 FM232200 24008KT P6SM SCT070 FM240200 21006KT P6SM SKC FM241000 18006KT P6SM SCT150 WS020/24040KT